Time;durP1;ratioP1;P1;durP2;ratioP2;P2;SDS_P1;SDS_P2;PMS_P1;PMS_P2;Temp;Humidity;BMP_temperature;BMP_pressure;BME280_temperature;BME280_humidity;BME280_pressure;Samples;Min_cycle;Max_cycle;Signal;HPM_P1;HPM_P2
2023/01/15 00:00:26;;;;;;;;;5.00;5.00;;;;;;;;5291716;27;8766;-75
2023/01/15 00:02:57;;;;;;;;;7.50;6.50;;;;;;;;5291771;27;11329;-74
2023/01/15 00:05:27;;;;;;;;;6.60;6.60;;;;;;;;5291012;27;11484;-75
2023/01/15 00:07:58;;;;;;;;;9.60;9.60;;;;;;;;5274021;27;8824;-75
2023/01/15 00:10:29;;;;;;;;;6.00;5.40;;;;;;;;5309305;27;8782;-76
2023/01/15 00:13:01;;;;;;;;;14.20;14.20;;;;;;;;5291198;27;8817;-75
2023/01/15 00:15:32;;;;;;;;;15.20;13.40;;;;;;;;5297112;27;8796;-76
2023/01/15 00:18:03;;;;;;;;;13.00;13.00;;;;;;;;5274325;27;8794;-76
2023/01/15 00:20:34;;;;;;;;;14.20;14.20;;;;;;;;5274154;27;8774;-75
2023/01/15 00:27:37;;;;;;;;;14.00;14.00;;;;;;;;5290990;27;8928;-75
2023/01/15 00:28:47;;;;;;;;;7.20;7.20;;;;;;;;5309789;27;8851;-75
2023/01/15 00:31:20;;;;;;;;;3.40;3.40;;;;;;;;5291478;27;9486;-76
2023/01/15 00:34:09;;;;;;;;;15.20;14.60;;;;;;;;5309450;27;8792;-76
2023/01/15 00:36:41;;;;;;;;;8.60;8.20;;;;;;;;5277329;27;8851;-73
2023/01/15 00:39:12;;;;;;;;;12.20;9.40;;;;;;;;5261213;27;8843;-72
2023/01/15 00:41:43;;;;;;;;;10.00;10.00;;;;;;;;5277539;27;8920;-72
2023/01/15 00:44:14;;;;;;;;;8.50;8.50;;;;;;;;5307740;27;9593;-72
2023/01/15 00:46:45;;;;;;;;;7.80;7.80;;;;;;;;5315248;27;11301;-71
2023/01/15 00:49:17;;;;;;;;;10.00;9.40;;;;;;;;5299345;27;8777;-72
2023/01/15 00:51:48;;;;;;;;;5.20;5.20;;;;;;;;5315229;27;8802;-72
2023/01/15 00:54:19;;;;;;;;;6.20;6.20;;;;;;;;5315836;27;8757;-72
2023/01/15 00:56:51;;;;;;;;;8.60;8.60;;;;;;;;5316040;27;8769;-72
2023/01/15 00:59:22;;;;;;;;;5.60;5.60;;;;;;;;5298659;27;9404;-72
2023/01/15 01:01:53;;;;;;;;;11.00;8.75;;;;;;;;5334204;27;8778;-75
2023/01/15 01:04:42;;;;;;;;;13.40;12.40;;;;;;;;5301292;27;10156;-76
2023/01/15 01:07:31;;;;;;;;;8.20;8.20;;;;;;;;5314875;27;8818;-76
2023/01/15 01:10:02;;;;;;;;;9.20;9.20;;;;;;;;5277411;27;8772;-75
2023/01/15 01:12:34;;;;;;;;;9.00;9.00;;;;;;;;5293528;27;8843;-75
2023/01/15 01:15:24;;;;;;;;;9.80;9.60;;;;;;;;5275811;28;8804;-76
2023/01/15 01:17:55;;;;;;;;;9.60;9.60;;;;;;;;5291128;28;8793;-76
2023/01/15 01:20:27;;;;;;;;;9.80;9.80;;;;;;;;5240067;28;8774;-75
2023/01/15 01:22:58;;;;;;;;;7.60;7.60;;;;;;;;5273422;28;8908;-75
2023/01/15 01:25:29;;;;;;;;;8.60;6.80;;;;;;;;5272775;28;9001;-75
2023/01/15 01:28:00;;;;;;;;;9.50;8.00;;;;;;;;5281934;27;8801;-73
2023/01/15 01:30:31;;;;;;;;;9.40;8.20;;;;;;;;5275330;28;10680;-73
2023/01/15 01:33:02;;;;;;;;;6.00;6.00;;;;;;;;5290405;28;8836;-73
2023/01/15 01:35:33;;;;;;;;;11.60;11.60;;;;;;;;5272521;28;10664;-73
2023/01/15 01:38:04;;;;;;;;;12.80;12.80;;;;;;;;5290937;28;8785;-76
2023/01/15 01:40:53;;;;;;;;;8.80;8.80;;;;;;;;5272758;28;8805;-77
2023/01/15 01:43:26;;;;;;;;;9.50;8.50;;;;;;;;5275961;27;8766;-77
2023/01/15 01:45:57;;;;;;;;;7.40;7.40;;;;;;;;5297492;27;9785;-75
2023/01/15 01:48:32;;;;;;;;;11.00;11.00;;;;;;;;5314584;27;8792;-75
2023/01/15 01:51:04;;;;;;;;;10.40;9.40;;;;;;;;5315098;27;8796;-76
2023/01/15 01:53:37;;;;;;;;;16.00;15.80;;;;;;;;5271995;28;8802;-77
2023/01/15 01:56:10;;;;;;;;;8.20;8.20;;;;;;;;5255684;28;8774;-77
2023/01/15 01:58:44;;;;;;;;;10.80;8.20;;;;;;;;5271957;28;8962;-76
2023/01/15 02:01:16;;;;;;;;;6.80;6.80;;;;;;;;5256282;28;8766;-76
2023/01/15 02:03:47;;;;;;;;;9.40;9.40;;;;;;;;5272092;28;8754;-76
2023/01/15 02:06:18;;;;;;;;;7.00;7.00;;;;;;;;5280880;27;8770;-78
2023/01/15 02:08:49;;;;;;;;;10.40;10.00;;;;;;;;5297612;27;9568;-78
2023/01/15 02:11:23;;;;;;;;;6.00;6.00;;;;;;;;5297420;27;8769;-78
2023/01/15 02:14:21;;;;;;;;;2.20;2.20;;;;;;;;5299785;27;8798;-77
2023/01/15 02:17:19;;;;;;;;;9.60;9.60;;;;;;;;5289338;27;8821;-77
2023/01/15 02:19:57;;;;;;;;;9.80;9.80;;;;;;;;5280529;27;8776;-77
2023/01/15 02:22:35;;;;;;;;;9.60;9.20;;;;;;;;5314232;27;8812;-75
2023/01/15 02:25:13;;;;;;;;;6.00;4.40;;;;;;;;5333126;27;8770;-76
2023/01/15 02:27:54;;;;;;;;;12.00;10.40;;;;;;;;5297145;27;9504;-75
2023/01/15 02:30:31;;;;;;;;;8.60;8.60;;;;;;;;5314557;27;9529;-76
2023/01/15 02:33:11;;;;;;;;;1.00;1.00;;;;;;;;5292695;27;8799;-76
2023/01/15 02:35:45;;;;;;;;;6.00;6.00;;;;;;;;5259501;27;8775;-76
2023/01/15 02:38:19;;;;;;;;;9.00;9.00;;;;;;;;5310496;27;9504;-74
2023/01/15 02:40:55;;;;;;;;;6.80;6.80;;;;;;;;5293180;27;8839;-74
2023/01/15 02:43:30;;;;;;;;;8.20;8.20;;;;;;;;5277597;27;9526;-74
2023/01/15 02:46:04;;;;;;;;;4.60;4.40;;;;;;;;5331753;27;8813;-74
2023/01/15 02:48:37;;;;;;;;;7.40;7.00;;;;;;;;5313687;27;8773;-73
2023/01/15 02:51:13;;;;;;;;;8.20;8.20;;;;;;;;5313684;27;8848;-72
2023/01/15 02:53:45;;;;;;;;;10.80;9.80;;;;;;;;5331890;27;8812;-76
2023/01/15 02:56:19;;;;;;;;;12.00;12.00;;;;;;;;5296284;27;8754;-76
2023/01/15 02:59:22;;;;;;;;;9.40;9.40;;;;;;;;5332619;27;8746;-76
2023/01/15 03:01:58;;;;;;;;;9.40;9.40;;;;;;;;5301992;27;8761;-75
2023/01/15 03:04:59;;;;;;;;;11.60;11.20;;;;;;;;5321565;27;8784;-76
2023/01/15 03:07:50;;;;;;;;;9.20;9.20;;;;;;;;5285624;27;8770;-76
2023/01/15 03:10:28;;;;;;;;;11.80;11.80;;;;;;;;5296368;27;8761;-76
2023/01/15 03:13:01;;;;;;;;;7.80;7.80;;;;;;;;5272553;27;8829;-76
2023/01/15 03:18:44;;;;;;;;;9.00;8.60;;;;;;;;5331528;27;8782;-76
2023/01/15 03:21:20;;;;;;;;;9.00;9.00;;;;;;;;5314050;27;8777;-75
2023/01/15 03:23:53;;;;;;;;;6.60;6.60;;;;;;;;5313131;27;8846;-79
2023/01/15 03:26:28;;;;;;;;;7.00;7.00;;;;;;;;5314460;27;9500;-77
2023/01/15 03:29:02;;;;;;;;;11.40;11.40;;;;;;;;5312719;27;9453;-76
2023/01/15 03:31:35;;;;;;;;;18.20;13.20;;;;;;;;5295770;27;8837;-76
2023/01/15 03:34:06;;;;;;;;;11.20;11.20;;;;;;;;5279634;27;8766;-76
2023/01/15 03:36:38;;;;;;;;;13.00;13.00;;;;;;;;5313009;27;8765;-77
2023/01/15 03:39:09;;;;;;;;;10.20;9.00;;;;;;;;5313154;27;8809;-77
2023/01/15 03:42:02;;;;;;;;;13.00;12.80;;;;;;;;5312974;27;8923;-75
2023/01/15 03:44:42;;;;;;;;;9.60;9.60;;;;;;;;5257543;27;8885;-76
2023/01/15 03:47:36;;;;;;;;;10.00;10.00;;;;;;;;5275003;27;8864;-77
2023/01/15 03:50:26;;;;;;;;;3.00;3.00;;;;;;;;5284727;27;8782;-75
2023/01/15 03:53:05;;;;;;;;;11.60;11.60;;;;;;;;5290951;27;8801;-74
2023/01/15 03:55:43;;;;;;;;;9.00;9.00;;;;;;;;5308570;27;8896;-74
2023/01/15 03:58:16;;;;;;;;;12.60;12.60;;;;;;;;5274027;27;8770;-73
2023/01/15 04:05:12;;;;;;;;;15.80;13.80;;;;;;;;5309232;27;8726;-73
2023/01/15 04:12:06;;;;;;;;;5.80;5.80;;;;;;;;5312988;27;8785;-72
2023/01/15 04:14:43;;;;;;;;;88.75;59.50;;;;;;;;5295247;27;8766;-73
2023/01/15 04:17:34;;;;;;;;;17.80;15.20;;;;;;;;5313146;27;8774;-72
2023/01/15 04:20:23;;;;;;;;;6.00;6.00;;;;;;;;5314087;27;8797;-73
2023/01/15 04:22:54;;;;;;;;;8.40;8.20;;;;;;;;5312208;27;8900;-73
2023/01/15 04:25:26;;;;;;;;;6.00;6.00;;;;;;;;5312136;27;9499;-74
2023/01/15 04:27:57;;;;;;;;;8.20;7.00;;;;;;;;5312148;27;8920;-73
2023/01/15 04:30:28;;;;;;;;;7.00;7.00;;;;;;;;5313423;27;8830;-74
2023/01/15 04:32:59;;;;;;;;;6.40;6.40;;;;;;;;5313085;27;9485;-74
2023/01/15 04:35:48;;;;;;;;;65.20;53.40;;;;;;;;5295457;27;8843;-74
2023/01/15 04:38:19;;;;;;;;;8.60;8.60;;;;;;;;5312734;27;9500;-77
2023/01/15 04:46:30;;;;;;;;;4.20;3.80;;;;;;;;5312725;27;8821;-74
2023/01/15 04:49:01;;;;;;;;;5.80;5.80;;;;;;;;5313212;27;8766;-74
2023/01/15 04:51:32;;;;;;;;;5.60;5.60;;;;;;;;5312684;27;9441;-75
2023/01/15 04:54:04;;;;;;;;;7.00;7.00;;;;;;;;5294743;27;8807;-73
2023/01/15 04:56:37;;;;;;;;;4.00;3.20;;;;;;;;5294083;27;8835;-73
2023/01/15 04:59:09;;;;;;;;;6.20;6.20;;;;;;;;5312988;27;8751;-74
2023/01/15 05:01:40;;;;;;;;;13.80;13.80;;;;;;;;5312367;27;8778;-73
2023/01/15 05:04:11;;;;;;;;;8.20;8.20;;;;;;;;5312581;27;8918;-74
2023/01/15 05:06:42;;;;;;;;;10.00;10.00;;;;;;;;5311561;27;8763;-74
2023/01/15 05:09:13;;;;;;;;;4.60;3.60;;;;;;;;5294967;27;8847;-75
2023/01/15 05:11:44;;;;;;;;;7.00;7.00;;;;;;;;5294269;27;9465;-74
2023/01/15 05:14:15;;;;;;;;;11.80;11.60;;;;;;;;5313408;27;11452;-75
2023/01/15 05:16:46;;;;;;;;;10.40;9.40;;;;;;;;5312520;27;8770;-72
2023/01/15 05:19:18;;;;;;;;;4.25;4.25;;;;;;;;5310985;27;8885;-72
2023/01/15 05:26:13;;;;;;;;;14.40;12.80;;;;;;;;5305288;27;8771;-71
2023/01/15 05:28:44;;;;;;;;;10.00;10.00;;;;;;;;5285329;28;8789;-71
2023/01/15 05:31:17;;;;;;;;;9.80;9.80;;;;;;;;5272473;28;8780;-72
2023/01/15 05:34:06;;;;;;;;;10.00;9.00;;;;;;;;5281983;27;8817;-72
2023/01/15 05:36:38;;;;;;;;;10.40;9.60;;;;;;;;5293823;27;9481;-72
2023/01/15 05:39:09;;;;;;;;;9.20;7.20;;;;;;;;5293335;27;8810;-71
2023/01/15 05:41:50;;;;;;;;;12.40;11.20;;;;;;;;5310438;27;8786;-70
2023/01/15 05:44:25;;;;;;;;;22.20;20.20;;;;;;;;5277082;27;8790;-75
2023/01/15 05:47:01;;;;;;;;;11.20;11.20;;;;;;;;5293012;27;9608;-69
2023/01/15 05:49:33;;;;;;;;;7.60;7.60;;;;;;;;5292947;27;8839;-69
2023/01/15 05:52:04;;;;;;;;;6.00;6.00;;;;;;;;5293472;27;8867;-68
2023/01/15 05:54:35;;;;;;;;;9.60;9.60;;;;;;;;5309984;27;8793;-69
2023/01/15 05:57:25;;;;;;;;;7.00;7.00;;;;;;;;5293116;27;8786;-69
2023/01/15 05:59:56;;;;;;;;;7.40;6.40;;;;;;;;5293210;27;8855;-69
2023/01/15 06:06:51;;;;;;;;;6.20;6.20;;;;;;;;5311214;27;8691;-68
2023/01/15 06:09:24;;;;;;;;;12.00;11.60;;;;;;;;5309791;27;8798;-69
2023/01/15 06:11:55;;;;;;;;;11.60;10.80;;;;;;;;5309520;27;9503;-69
2023/01/15 06:14:26;;;;;;;;;7.40;7.40;;;;;;;;5292966;27;8787;-69
2023/01/15 06:25:45;;;;;;;;;14.60;14.60;;;;;;;;5332184;27;8715;-69
2023/01/15 06:28:16;;;;;;;;;9.00;9.00;;;;;;;;5296547;27;8776;-68
2023/01/15 06:30:47;;;;;;;;;11.20;10.80;;;;;;;;5297025;27;8768;-67
2023/01/15 06:33:18;;;;;;;;;9.20;9.20;;;;;;;;5295497;27;8788;-68
2023/01/15 06:35:51;;;;;;;;;7.00;7.00;;;;;;;;5297059;27;8780;-67
2023/01/15 06:38:22;;;;;;;;;17.00;15.60;;;;;;;;5296660;27;8768;-68
2023/01/15 06:40:53;;;;;;;;;15.60;14.00;;;;;;;;5296546;27;8772;-69
2023/01/15 06:49:05;;;;;;;;;11.20;11.20;;;;;;;;5296310;27;8772;-68
2023/01/15 06:51:36;;;;;;;;;4.40;4.40;;;;;;;;5295981;27;8759;-68
2023/01/15 06:54:07;;;;;;;;;12.00;12.00;;;;;;;;5278865;27;8806;-68
2023/01/15 06:56:39;;;;;;;;;12.60;12.40;;;;;;;;5279496;27;9502;-68
2023/01/15 06:59:10;;;;;;;;;9.00;9.00;;;;;;;;5296200;27;9630;-68
2023/01/15 07:01:41;;;;;;;;;19.60;19.20;;;;;;;;5313278;27;8741;-69
2023/01/15 07:04:32;;;;;;;;;9.40;9.40;;;;;;;;5298609;27;8779;-69
2023/01/15 07:07:21;;;;;;;;;7.60;7.60;;;;;;;;5316586;27;8775;-69
2023/01/15 07:09:53;;;;;;;;;4.00;4.00;;;;;;;;5278960;27;8748;-69
2023/01/15 07:12:25;;;;;;;;;6.40;6.40;;;;;;;;5312558;27;8918;-69
2023/01/15 07:14:56;;;;;;;;;6.80;6.00;;;;;;;;5296328;27;9463;-69
2023/01/15 07:17:27;;;;;;;;;8.60;8.60;;;;;;;;5296079;27;8756;-68
2023/01/15 07:19:59;;;;;;;;;9.80;9.80;;;;;;;;5313023;27;8856;-68
2023/01/15 07:22:34;;;;;;;;;8.80;8.80;;;;;;;;5296173;27;9530;-68
2023/01/15 07:25:05;;;;;;;;;10.80;10.80;;;;;;;;5313278;27;8810;-68
2023/01/15 07:27:37;;;;;;;;;4.80;4.00;;;;;;;;5295604;27;8788;-68
2023/01/15 07:30:08;;;;;;;;;10.00;10.00;;;;;;;;5312845;27;8808;-69
2023/01/15 07:32:40;;;;;;;;;4.80;4.00;;;;;;;;5279241;27;8808;-68
2023/01/15 07:35:13;;;;;;;;;6.40;6.40;;;;;;;;5278557;27;8772;-68
2023/01/15 07:37:50;;;;;;;;;9.60;9.20;;;;;;;;5313133;27;8798;-69
2023/01/15 07:40:41;;;;;;;;;8.80;8.60;;;;;;;;5312809;27;9490;-69
2023/01/15 07:49:49;;;;;;;;;3.40;2.20;;;;;;;;5319219;27;8868;-67
2023/01/15 07:52:21;;;;;;;;;6.40;6.40;;;;;;;;5319627;27;8850;-68
2023/01/15 07:54:52;;;;;;;;;9.80;9.80;;;;;;;;5285971;27;9498;-68
2023/01/15 07:57:25;;;;;;;;;6.60;6.60;;;;;;;;5319210;27;8914;-68
2023/01/15 07:59:58;;;;;;;;;7.20;7.20;;;;;;;;5285610;27;8790;-69
2023/01/15 08:02:30;;;;;;;;;3.80;3.80;;;;;;;;5302339;27;8903;-68
2023/01/15 08:05:01;;;;;;;;;10.20;9.20;;;;;;;;5319553;27;8784;-69
2023/01/15 08:07:40;;;;;;;;;9.40;9.40;;;;;;;;5302690;27;8795;-68
2023/01/15 08:10:12;;;;;;;;;9.40;9.40;;;;;;;;5319755;27;9535;-69
2023/01/15 08:15:37;;;;;;;;;7.00;7.00;;;;;;;;5319407;27;8779;-68
2023/01/15 08:18:08;;;;;;;;;17.60;15.20;;;;;;;;5302189;27;8787;-69
2023/01/15 08:20:42;;;;;;;;;36.40;32.00;;;;;;;;5320130;27;9533;-69
2023/01/15 08:23:13;;;;;;;;;12.75;12.75;;;;;;;;5285041;27;8807;-69
2023/01/15 08:26:04;;;;;;;;;24.00;21.60;;;;;;;;5304757;27;12105;-69
2023/01/15 08:28:35;;;;;;;;;9.20;9.20;;;;;;;;5285223;27;8775;-69
2023/01/15 08:31:07;;;;;;;;;17.20;14.20;;;;;;;;5319405;27;8787;-69
2023/01/15 08:33:38;;;;;;;;;22.60;21.60;;;;;;;;5301748;27;8803;-68
2023/01/15 08:36:09;;;;;;;;;16.40;15.40;;;;;;;;5301950;27;8776;-69
2023/01/15 08:43:04;;;;;;;;;4.80;4.80;;;;;;;;5337436;27;8701;-69
2023/01/15 08:45:35;;;;;;;;;9.75;6.75;;;;;;;;5301649;27;8812;-69
2023/01/15 08:48:06;;;;;;;;;3.50;3.00;;;;;;;;5338207;27;10814;-68
2023/01/15 08:50:37;;;;;;;;;7.00;6.60;;;;;;;;5301710;27;9003;-68
2023/01/15 08:53:08;;;;;;;;;2.50;2.50;;;;;;;;5302026;27;8803;-69
2023/01/15 08:55:39;;;;;;;;;7.50;7.50;;;;;;;;5301749;27;8796;-67
2023/01/15 08:58:10;;;;;;;;;6.60;6.60;;;;;;;;5299116;27;9121;-67
2023/01/15 09:00:42;;;;;;;;;5.00;5.00;;;;;;;;5315962;27;8858;-69
2023/01/15 09:03:13;;;;;;;;;1.00;1.00;;;;;;;;5298238;27;10092;-69
2023/01/15 09:06:04;;;;;;;;;7.00;7.00;;;;;;;;5334209;27;9486;-69
2023/01/15 09:08:38;;;;;;;;;6.40;6.40;;;;;;;;5300020;27;9519;-68
2023/01/15 09:11:11;;;;;;;;;7.60;7.60;;;;;;;;5302660;27;8776;-68
2023/01/15 09:13:42;;;;;;;;;7.00;7.00;;;;;;;;5289151;27;8889;-69
2023/01/15 09:16:16;;;;;;;;;21.00;20.50;;;;;;;;5302660;27;8895;-69
2023/01/15 09:18:47;;;;;;;;;10.40;10.40;;;;;;;;5315789;27;11491;-68
2023/01/15 09:25:56;;;;;;;;;9.20;9.20;;;;;;;;5333533;27;8685;-69
2023/01/15 09:28:28;;;;;;;;;11.80;10.40;;;;;;;;5297968;27;8783;-69
2023/01/15 09:35:23;;;;;;;;;12.80;12.60;;;;;;;;5333176;27;8732;-68
2023/01/15 09:37:54;;;;;;;;;6.00;6.00;;;;;;;;5297836;27;8768;-68
2023/01/15 09:40:25;;;;;;;;;9.00;9.00;;;;;;;;5280850;27;8768;-68
2023/01/15 09:43:01;;;;;;;;;7.00;7.00;;;;;;;;5315195;27;10146;-69
2023/01/15 09:45:49;;;;;;;;;4.00;4.00;;;;;;;;5314524;27;9639;-69
2023/01/15 09:49:03;;;;;;;;;3.20;3.20;;;;;;;;5317678;27;8768;-69
2023/01/15 09:51:42;;;;;;;;;3.80;3.80;;;;;;;;5297246;27;8761;-68
2023/01/15 09:54:34;;;;;;;;;4.00;4.00;;;;;;;;5297820;27;8800;-70
2023/01/15 09:57:09;;;;;;;;;3.00;3.00;;;;;;;;5330715;27;8791;-68
2023/01/15 09:59:42;;;;;;;;;2.60;2.60;;;;;;;;5297383;27;8760;-69
2023/01/15 10:02:26;;;;;;;;;26.00;26.00;;;;;;;;5297089;27;8860;-69
2023/01/15 10:05:01;;;;;;;;;4.40;4.00;;;;;;;;5280618;27;8780;-69
2023/01/15 10:07:38;;;;;;;;;3.80;3.20;;;;;;;;5296693;27;8776;-68
2023/01/15 10:10:14;;;;;;;;;3.80;3.80;;;;;;;;5297134;27;8756;-69
2023/01/15 10:12:49;;;;;;;;;7.00;6.00;;;;;;;;5296462;27;8874;-68
2023/01/15 10:15:35;;;;;;;;;4.80;4.80;;;;;;;;5279957;27;8872;-69
2023/01/15 10:18:12;;;;;;;;;3.00;3.00;;;;;;;;5297112;27;8878;-69
2023/01/15 10:21:04;;;;;;;;;5.20;3.80;;;;;;;;5299654;27;8795;-70
2023/01/15 10:23:49;;;;;;;;;6.00;4.40;;;;;;;;5296928;27;8772;-69
2023/01/15 10:26:23;;;;;;;;;4.00;4.00;;;;;;;;5279652;27;8786;-69
2023/01/15 10:28:57;;;;;;;;;7.20;6.40;;;;;;;;5279781;27;8768;-69
2023/01/15 10:31:53;;;;;;;;;7.80;7.40;;;;;;;;5299799;27;9581;-68
2023/01/15 10:34:39;;;;;;;;;3.40;3.40;;;;;;;;5332092;27;8779;-69
2023/01/15 10:37:13;;;;;;;;;7.40;6.60;;;;;;;;5297189;27;8887;-69
2023/01/15 10:40:03;;;;;;;;;3.20;3.20;;;;;;;;5297668;27;8761;-69
2023/01/15 10:42:34;;;;;;;;;1.00;1.00;;;;;;;;5296914;27;8783;-68
2023/01/15 10:45:15;;;;;;;;;5.25;5.25;;;;;;;;5279554;27;8919;-69
2023/01/15 10:48:23;;;;;;;;;5.80;5.40;;;;;;;;5316393;27;8752;-69
2023/01/15 10:50:55;;;;;;;;;0.60;0.60;;;;;;;;5279818;27;8906;-68
2023/01/15 10:53:38;;;;;;;;;7.80;7.40;;;;;;;;5279079;27;8800;-69
2023/01/15 10:56:20;;;;;;;;;13.40;12.20;;;;;;;;5279532;27;8768;-68
2023/01/15 10:58:56;;;;;;;;;11.00;9.80;;;;;;;;5278766;27;8748;-68
2023/01/15 11:01:27;;;;;;;;;11.20;11.20;;;;;;;;5279058;27;8791;-68
2023/01/15 11:03:58;;;;;;;;;50.25;46.50;;;;;;;;5279095;27;8780;-69
2023/01/15 11:06:30;;;;;;;;;8.00;8.00;;;;;;;;5295903;27;11394;-68
2023/01/15 11:09:01;;;;;;;;;37.60;34.20;;;;;;;;5312693;27;11405;-68
2023/01/15 11:20:18;;;;;;;;;4.20;3.60;;;;;;;;5295561;27;8772;-69
2023/01/15 11:22:49;;;;;;;;;4.00;4.00;;;;;;;;5278790;27;8795;-70
2023/01/15 11:25:30;;;;;;;;;4.00;3.00;;;;;;;;5278738;27;8795;-69
2023/01/15 11:28:03;;;;;;;;;3.40;3.40;;;;;;;;5279213;27;8776;-69
2023/01/15 11:30:36;;;;;;;;;7.60;7.40;;;;;;;;5312581;27;8792;-69
2023/01/15 11:33:26;;;;;;;;;4.80;4.80;;;;;;;;5295821;27;8905;-70
2023/01/15 11:35:59;;;;;;;;;10.60;10.60;;;;;;;;5295793;27;8814;-69
2023/01/15 11:38:42;;;;;;;;;6.00;6.00;;;;;;;;5278940;27;8788;-68
2023/01/15 11:50:42;;;;;;;;;5.60;5.60;;;;;;;;5296379;27;8764;-69
2023/01/15 11:53:17;;;;;;;;;7.20;7.20;;;;;;;;5232567;28;9506;-70
2023/01/15 11:55:49;;;;;;;;;7.00;6.20;;;;;;;;5295041;27;8769;-70
2023/01/15 11:58:20;;;;;;;;;20.60;19.20;;;;;;;;5331700;27;9522;-69
2023/01/15 12:00:54;;;;;;;;;14.20;14.20;;;;;;;;5278808;27;8795;-67
2023/01/15 12:03:30;;;;;;;;;25.40;25.40;;;;;;;;5312400;27;8802;-68
2023/01/15 12:06:06;;;;;;;;;11.00;8.60;;;;;;;;5312721;27;8891;-68
2023/01/15 12:08:37;;;;;;;;;3.40;3.40;;;;;;;;5278506;27;8760;-68
2023/01/15 12:11:27;;;;;;;;;9.00;9.00;;;;;;;;5312435;27;8772;-69
2023/01/15 12:13:58;;;;;;;;;12.60;12.60;;;;;;;;5295556;27;11453;-68
2023/01/15 12:16:35;;;;;;;;;5.75;5.75;;;;;;;;5278785;27;8780;-68
2023/01/15 12:19:12;;;;;;;;;10.00;10.00;;;;;;;;5278251;27;12070;-69
2023/01/15 12:22:13;;;;;;;;;4.40;4.40;;;;;;;;5314956;27;8815;-67
2023/01/15 12:24:59;;;;;;;;;7.00;7.00;;;;;;;;5295196;27;8787;-68
2023/01/15 12:27:31;;;;;;;;;10.20;9.20;;;;;;;;5278172;27;8804;-67
2023/01/15 12:30:22;;;;;;;;;3.00;3.00;;;;;;;;5296152;27;8768;-69
2023/01/15 12:33:16;;;;;;;;;9.40;7.00;;;;;;;;5314990;27;8796;-69
2023/01/15 12:35:55;;;;;;;;;5.60;5.60;;;;;;;;5271246;27;8818;-70
2023/01/15 12:38:33;;;;;;;;;9.00;9.00;;;;;;;;5282361;27;8776;-69
2023/01/15 12:44:58;;;;;;;;;10.80;9.20;;;;;;;;5281960;27;8760;-69
2023/01/15 12:47:19;;;;;;;;;9.60;9.60;;;;;;;;5315913;27;8787;-68
2023/01/15 12:49:55;;;;;;;;;25.40;5.80;;;;;;;;5298946;27;8903;-68
2023/01/15 12:52:30;;;;;;;;;9.40;9.40;;;;;;;;5281865;27;8795;-67
2023/01/15 12:55:13;;;;;;;;;3.00;3.00;;;;;;;;5299073;27;8844;-69
2023/01/15 12:57:52;;;;;;;;;11.80;10.40;;;;;;;;5281575;27;8764;-67
2023/01/15 13:00:26;;;;;;;;;10.20;9.00;;;;;;;;5282016;27;8772;-67
2023/01/15 13:03:15;;;;;;;;;6.20;4.80;;;;;;;;5281682;27;8807;-67
2023/01/15 13:05:47;;;;;;;;;11.20;10.60;;;;;;;;5281656;27;8787;-68
2023/01/15 13:08:29;;;;;;;;;12.60;12.60;;;;;;;;5281483;27;8768;-68
2023/01/15 13:11:18;;;;;;;;;11.60;11.60;;;;;;;;5301697;27;8780;-68
2023/01/15 13:13:58;;;;;;;;;15.60;15.60;;;;;;;;5298779;27;8796;-68
2023/01/15 13:16:32;;;;;;;;;12.00;12.00;;;;;;;;5282077;27;8798;-68
2023/01/15 13:19:16;;;;;;;;;15.40;14.20;;;;;;;;5281959;27;8807;-68
2023/01/15 13:21:51;;;;;;;;;13.00;13.00;;;;;;;;5298966;27;8779;-69
2023/01/15 13:24:22;;;;;;;;;22.80;21.80;;;;;;;;5298549;27;8780;-68
2023/01/15 13:27:26;;;;;;;;;12.20;12.20;;;;;;;;5299117;27;8791;-69
2023/01/15 13:30:03;;;;;;;;;12.20;12.20;;;;;;;;5254521;27;8760;-68
2023/01/15 13:32:41;;;;;;;;;13.80;12.20;;;;;;;;5299268;27;8896;-68
2023/01/15 13:35:33;;;;;;;;;9.00;9.00;;;;;;;;5315729;27;8772;-68
2023/01/15 13:38:10;;;;;;;;;10.60;9.80;;;;;;;;5299046;27;8780;-68
2023/01/15 13:40:49;;;;;;;;;29.60;27.20;;;;;;;;5317102;27;8831;-68
2023/01/15 13:43:33;;;;;;;;;14.20;14.20;;;;;;;;5299391;27;8776;-67
2023/01/15 13:46:22;;;;;;;;;16.80;16.80;;;;;;;;5301403;27;8800;-69
2023/01/15 13:49:20;;;;;;;;;14.80;13.40;;;;;;;;5317271;27;9465;-67
2023/01/15 13:51:52;;;;;;;;;19.60;18.40;;;;;;;;5282812;27;8914;-69
2023/01/15 13:54:42;;;;;;;;;8.20;7.80;;;;;;;;5318544;27;8915;-68
2023/01/15 13:57:22;;;;;;;;;21.20;19.60;;;;;;;;5280860;27;8795;-69
2023/01/15 13:59:53;;;;;;;;;13.80;13.80;;;;;;;;5298333;27;8760;-68
2023/01/15 14:02:50;;;;;;;;;18.60;18.40;;;;;;;;5318293;27;8768;-69
2023/01/15 14:05:34;;;;;;;;;18.00;18.00;;;;;;;;5281680;27;9471;-69
2023/01/15 14:08:14;;;;;;;;;13.00;12.60;;;;;;;;5297956;27;8753;-68
2023/01/15 14:10:47;;;;;;;;;16.20;16.20;;;;;;;;5315428;27;9462;-68
2023/01/15 14:13:18;;;;;;;;;14.60;14.60;;;;;;;;5297741;27;8815;-68
2023/01/15 14:16:08;;;;;;;;;12.50;11.50;;;;;;;;5314750;27;8788;-68
2023/01/15 14:18:42;;;;;;;;;14.00;14.00;;;;;;;;5297648;27;11431;-69
2023/01/15 14:21:22;;;;;;;;;7.80;7.80;;;;;;;;5280501;27;8768;-69
2023/01/15 14:24:18;;;;;;;;;6.00;6.00;;;;;;;;5314899;27;8828;-69
2023/01/15 14:27:02;;;;;;;;;6.20;6.20;;;;;;;;5297522;27;8784;-67
2023/01/15 14:30:21;;;;;;;;;5.20;5.20;;;;;;;;5316805;27;8785;-70
2023/01/15 14:33:05;;;;;;;;;13.00;13.00;;;;;;;;5278930;27;9521;-68
2023/01/15 14:35:40;;;;;;;;;6.60;6.60;;;;;;;;5279852;27;8776;-68
2023/01/15 14:38:14;;;;;;;;;7.00;6.60;;;;;;;;5313808;27;8776;-71
2023/01/15 14:40:58;;;;;;;;;6.60;6.60;;;;;;;;5279894;27;8807;-70
2023/01/15 14:43:32;;;;;;;;;5.20;4.00;;;;;;;;5279866;27;8813;-69
2023/01/15 14:46:21;;;;;;;;;6.80;5.60;;;;;;;;5298858;27;8839;-71
2023/01/15 14:48:52;;;;;;;;;9.25;9.25;;;;;;;;5279895;27;8794;-68
2023/01/15 14:51:26;;;;;;;;;7.80;7.80;;;;;;;;5296642;27;9010;-69
2023/01/15 14:54:02;;;;;;;;;8.20;8.20;;;;;;;;5312669;27;8806;-69
2023/01/15 14:56:56;;;;;;;;;9.80;9.80;;;;;;;;5316459;27;8784;-69
2023/01/15 14:59:31;;;;;;;;;7.00;6.60;;;;;;;;5296346;27;8768;-69
2023/01/15 15:02:14;;;;;;;;;12.60;10.20;;;;;;;;5296634;27;8776;-70
2023/01/15 15:04:53;;;;;;;;;11.20;9.40;;;;;;;;5296410;27;8768;-69
2023/01/15 15:07:34;;;;;;;;;7.00;7.00;;;;;;;;5313823;27;8768;-69
2023/01/15 15:19:00;;;;;;;;;12.40;12.40;;;;;;;;5331428;27;8716;-70
2023/01/15 15:21:34;;;;;;;;;10.40;10.40;;;;;;;;5312721;27;8827;-70
2023/01/15 15:28:31;;;;;;;;;25.80;23.20;;;;;;;;5336991;27;8872;-68
2023/01/15 15:31:03;;;;;;;;;12.00;12.00;;;;;;;;5316485;27;8764;-69
2023/01/15 15:33:44;;;;;;;;;12.20;11.20;;;;;;;;5280226;27;8799;-69
2023/01/15 15:36:15;;;;;;;;;9.00;9.00;;;;;;;;5314592;27;8764;-69
2023/01/15 15:39:01;;;;;;;;;14.60;12.60;;;;;;;;5279254;27;8845;-69
2023/01/15 15:50:41;;;;;;;;;12.00;12.00;;;;;;;;5312587;27;8787;-69
2023/01/15 15:53:16;;;;;;;;;15.80;15.80;;;;;;;;5308933;27;8796;-69
2023/01/15 15:56:05;;;;;;;;;12.60;12.60;;;;;;;;5297087;27;8768;-69
2023/01/15 15:58:38;;;;;;;;;8.60;7.40;;;;;;;;5295150;27;8906;-70
2023/01/15 16:01:12;;;;;;;;;11.40;11.00;;;;;;;;5295445;27;8780;-69
2023/01/15 16:03:47;;;;;;;;;10.00;10.00;;;;;;;;5278317;27;9502;-68
2023/01/15 16:06:19;;;;;;;;;10.80;10.00;;;;;;;;5298065;27;8784;-69
2023/01/15 16:08:52;;;;;;;;;9.60;9.40;;;;;;;;5299492;27;9498;-67
2023/01/15 16:11:42;;;;;;;;;6.40;6.40;;;;;;;;5301792;27;8959;-68
2023/01/15 16:14:15;;;;;;;;;11.60;11.60;;;;;;;;5316328;27;9483;-68
2023/01/15 16:16:48;;;;;;;;;6.80;6.80;;;;;;;;5299892;27;8784;-68
2023/01/15 16:19:21;;;;;;;;;5.00;5.00;;;;;;;;5316173;27;8905;-69
2023/01/15 16:21:53;;;;;;;;;13.40;13.40;;;;;;;;5299231;27;8776;-67
2023/01/15 16:24:26;;;;;;;;;13.20;12.40;;;;;;;;5299318;27;8790;-69
2023/01/15 16:27:02;;;;;;;;;19.00;18.40;;;;;;;;5299679;27;8772;-68
2023/01/15 16:29:34;;;;;;;;;19.60;17.60;;;;;;;;5316717;27;8787;-68
2023/01/15 16:32:10;;;;;;;;;29.40;26.20;;;;;;;;5282299;27;8911;-69
2023/01/15 16:34:41;;;;;;;;;52.80;46.40;;;;;;;;5282777;27;8760;-68
2023/01/15 16:37:22;;;;;;;;;64.00;53.20;;;;;;;;5282334;27;8776;-69
2023/01/15 16:39:57;;;;;;;;;63.20;51.60;;;;;;;;5299030;27;8781;-69
2023/01/15 16:42:29;;;;;;;;;72.20;59.80;;;;;;;;5299346;27;8780;-68
2023/01/15 16:45:02;;;;;;;;;15.80;15.80;;;;;;;;5315504;27;8802;-68
2023/01/15 16:47:35;;;;;;;;;12.60;11.60;;;;;;;;5299025;27;8761;-68
2023/01/15 16:50:25;;;;;;;;;5.20;5.20;;;;;;;;5315844;27;8761;-68
2023/01/15 16:53:00;;;;;;;;;9.00;9.00;;;;;;;;5315943;27;9490;-68
2023/01/15 16:55:32;;;;;;;;;8.20;8.20;;;;;;;;5299198;27;8790;-69
2023/01/15 16:58:28;;;;;;;;;6.80;5.80;;;;;;;;5299512;27;8960;-68
2023/01/15 17:01:21;;;;;;;;;5.20;5.20;;;;;;;;5272604;27;8804;-68
2023/01/15 17:03:52;;;;;;;;;9.60;9.60;;;;;;;;5299116;27;8776;-68
2023/01/15 17:06:25;;;;;;;;;6.40;6.40;;;;;;;;5298726;27;8760;-68
2023/01/15 17:08:57;;;;;;;;;6.00;6.00;;;;;;;;5298526;27;8768;-69
2023/01/15 17:11:51;;;;;;;;;6.60;6.60;;;;;;;;5301130;27;9518;-68
2023/01/15 17:14:23;;;;;;;;;12.40;11.20;;;;;;;;5298604;27;8826;-69
2023/01/15 17:17:14;;;;;;;;;9.20;9.20;;;;;;;;5280582;27;8839;-67
2023/01/15 17:19:45;;;;;;;;;9.20;9.20;;;;;;;;5298870;27;8760;-68
2023/01/15 17:22:35;;;;;;;;;9.20;9.20;;;;;;;;5300829;27;9557;-68
2023/01/15 17:25:25;;;;;;;;;11.40;11.40;;;;;;;;5297926;27;8764;-68
2023/01/15 17:27:58;;;;;;;;;8.20;8.20;;;;;;;;5333721;27;8772;-68
2023/01/15 17:30:30;;;;;;;;;5.60;5.20;;;;;;;;5314908;27;8796;-69
2023/01/15 17:33:01;;;;;;;;;6.00;6.00;;;;;;;;5297497;27;8808;-69